Time;durP1;ratioP1;P1;durP2;ratioP2;P2;SDS_P1;SDS_P2;PMS_P1;PMS_P2;Temp;Humidity;BMP_temperature;BMP_pressure;BME280_temperature;BME280_humidity;BME280_pressure;Samples;Min_cycle;Max_cycle;Signal;HPM_P1;HPM_P2
2024/01/26 00:00:44;;;;;;;45.88;20.23;;;8.50;99.90;;;;;;6170577;23;20494;-74
2024/01/26 00:03:10;;;;;;;55.05;19.85;;;8.50;99.90;;;;;;6174322;23;20029;-74
2024/01/26 00:05:36;;;;;;;44.92;20.15;;;8.50;99.90;;;;;;6176515;23;20028;-74
2024/01/26 00:08:01;;;;;;;43.55;20.00;;;8.50;99.90;;;;;;6148086;23;20104;-74
2024/01/26 00:10:27;;;;;;;37.35;17.95;;;8.50;99.90;;;;;;6177386;23;20021;-74
2024/01/26 00:12:53;;;;;;;36.03;17.52;;;8.50;99.90;;;;;;6177698;23;20652;-74
2024/01/26 00:15:18;;;;;;;40.75;17.88;;;8.50;99.90;;;;;;6149046;23;20032;-74
2024/01/26 00:17:44;;;;;;;39.20;17.35;;;8.50;99.90;;;;;;6150883;23;20048;-74
2024/01/26 00:20:09;;;;;;;40.80;17.98;;;8.60;99.90;;;;;;6176333;23;20017;-74
2024/01/26 00:22:35;;;;;;;42.60;17.83;;;8.60;99.90;;;;;;6175832;23;20059;-74
2024/01/26 00:25:02;;;;;;;34.67;17.77;;;8.60;99.90;;;;;;6176016;23;20024;-74
2024/01/26 00:27:27;;;;;;;35.63;16.92;;;8.60;99.90;;;;;;6174845;23;20042;-74
2024/01/26 00:29:53;;;;;;;38.80;16.38;;;8.60;99.90;;;;;;6177451;23;20036;-74
2024/01/26 00:32:18;;;;;;;35.65;15.25;;;8.60;99.90;;;;;;6149569;23;20027;-74
2024/01/26 00:34:44;;;;;;;31.90;14.82;;;8.60;99.90;;;;;;6148177;23;20049;-74
2024/01/26 00:37:10;;;;;;;31.30;14.60;;;8.60;99.90;;;;;;6176886;23;20021;-74
2024/01/26 00:39:35;;;;;;;35.03;15.90;;;8.60;99.90;;;;;;6175682;23;20075;-74
2024/01/26 00:42:01;;;;;;;35.25;16.02;;;8.70;99.90;;;;;;6150545;23;20076;-74
2024/01/26 00:44:27;;;;;;;35.05;15.65;;;8.70;99.90;;;;;;6150016;23;20104;-74
2024/01/26 00:46:52;;;;;;;36.60;15.27;;;8.70;99.90;;;;;;6150303;23;20032;-74
2024/01/26 00:49:18;;;;;;;34.90;15.48;;;8.70;99.90;;;;;;6148805;23;20029;-74
2024/01/26 00:51:44;;;;;;;34.95;15.65;;;8.70;99.90;;;;;;6177435;23;20017;-74
2024/01/26 00:54:10;;;;;;;38.97;15.88;;;8.70;99.90;;;;;;6175861;23;20024;-74
2024/01/26 00:56:36;;;;;;;28.45;12.73;;;8.70;99.90;;;;;;6175949;23;20475;-73
2024/01/26 00:59:01;;;;;;;32.50;14.77;;;8.70;99.90;;;;;;6170588;23;20405;-74
2024/01/26 01:01:27;;;;;;;31.25;14.77;;;8.70;99.90;;;;;;6176717;23;20024;-74
2024/01/26 01:03:53;;;;;;;27.92;14.32;;;8.70;99.90;;;;;;6175880;23;20028;-74
2024/01/26 01:06:19;;;;;;;29.73;14.02;;;8.70;99.90;;;;;;6175984;23;20017;-74
2024/01/26 01:08:45;;;;;;;25.88;13.80;;;8.80;99.90;;;;;;6174462;23;20013;-74
2024/01/26 01:11:11;;;;;;;29.67;13.73;;;8.70;99.90;;;;;;6176442;23;20373;-74
2024/01/26 01:13:37;;;;;;;23.48;12.35;;;8.80;99.90;;;;;;6176473;23;20076;-74
2024/01/26 01:16:03;;;;;;;23.20;13.20;;;8.80;99.90;;;;;;6175517;23;20568;-74
2024/01/26 01:18:29;;;;;;;22.70;11.73;;;8.80;99.90;;;;;;6149469;23;20017;-74
2024/01/26 01:20:54;;;;;;;19.63;11.07;;;8.80;99.90;;;;;;6151029;23;20021;-74
2024/01/26 01:23:20;;;;;;;23.85;12.00;;;8.80;99.90;;;;;;6173773;23;20040;-73
2024/01/26 01:25:46;;;;;;;26.70;12.80;;;8.90;99.90;;;;;;6174534;23;20036;-74
2024/01/26 01:28:11;;;;;;;20.83;11.48;;;8.80;99.90;;;;;;6176690;23;20032;-74
2024/01/26 01:30:37;;;;;;;20.40;10.77;;;8.80;99.90;;;;;;6147855;23;20500;-74
2024/01/26 01:33:03;;;;;;;22.73;12.00;;;8.90;99.90;;;;;;6176368;23;20024;-74
2024/01/26 01:35:29;;;;;;;21.67;11.57;;;8.90;99.90;;;;;;6177396;23;20013;-74
2024/01/26 01:37:54;;;;;;;20.25;12.43;;;8.80;99.90;;;;;;6174099;23;20021;-74
2024/01/26 01:40:20;;;;;;;18.42;11.50;;;8.80;99.90;;;;;;6150128;23;20021;-74
2024/01/26 01:42:46;;;;;;;19.48;11.32;;;8.80;99.90;;;;;;6175926;23;20060;-74
2024/01/26 01:45:13;;;;;;;20.63;10.52;;;8.90;99.90;;;;;;6175279;23;20092;-74
2024/01/26 01:47:40;;;;;;;20.20;10.18;;;8.80;99.90;;;;;;6173783;23;20315;-73
2024/01/26 01:50:07;;;;;;;22.02;11.07;;;8.80;99.90;;;;;;6176086;23;20497;-74
2024/01/26 01:52:36;;;;;;;20.30;11.20;;;8.80;99.90;;;;;;6173561;23;20056;-73
2024/01/26 01:55:03;;;;;;;21.95;11.57;;;8.90;99.90;;;;;;6176721;23;20017;-74
2024/01/26 01:57:31;;;;;;;20.73;12.02;;;8.80;99.90;;;;;;6173937;23;20144;-74
2024/01/26 01:59:56;;;;;;;21.23;11.35;;;8.80;99.90;;;;;;6142442;23;20021;-74
2024/01/26 02:02:24;;;;;;;25.60;12.82;;;8.90;99.90;;;;;;6146300;23;20196;-73
2024/01/26 02:04:52;;;;;;;25.15;12.82;;;8.90;99.90;;;;;;6173905;23;20025;-74
2024/01/26 02:07:18;;;;;;;21.27;12.63;;;8.90;99.90;;;;;;6147052;23;20021;-74
2024/01/26 02:09:44;;;;;;;21.35;12.50;;;8.90;99.90;;;;;;6148604;23;20035;-74
2024/01/26 02:12:11;;;;;;;23.88;12.35;;;8.90;99.90;;;;;;6176637;23;20017;-73
2024/01/26 02:14:37;;;;;;;26.80;13.63;;;8.90;99.90;;;;;;6149970;23;20084;-73
2024/01/26 02:17:02;;;;;;;26.42;13.10;;;8.90;99.90;;;;;;6146054;23;20061;-73
2024/01/26 02:19:32;;;;;;;23.52;13.50;;;8.90;99.90;;;;;;6172767;23;20032;-73
2024/01/26 02:21:58;;;;;;;27.10;13.70;;;8.90;99.90;;;;;;6173882;23;20025;-74
2024/01/26 02:24:24;;;;;;;28.90;16.23;;;8.90;99.90;;;;;;6174464;23;20021;-73
2024/01/26 02:26:50;;;;;;;28.55;15.60;;;8.90;99.90;;;;;;6175063;23;20194;-73
2024/01/26 02:29:15;;;;;;;34.90;18.10;;;8.80;99.90;;;;;;6172946;23;20021;-73
2024/01/26 02:31:41;;;;;;;32.72;17.00;;;8.80;99.90;;;;;;6176032;23;20021;-73
2024/01/26 02:34:07;;;;;;;31.83;17.83;;;8.70;99.90;;;;;;6176147;23;20031;-73
2024/01/26 02:36:34;;;;;;;35.25;19.15;;;8.70;99.90;;;;;;6177115;23;20108;-73
2024/01/26 02:39:00;;;;;;;37.75;20.02;;;8.70;99.90;;;;;;6147246;23;20020;-73
2024/01/26 02:41:26;;;;;;;37.85;21.15;;;8.70;99.90;;;;;;6175571;23;20093;-73
2024/01/26 02:43:51;;;;;;;36.63;20.50;;;8.70;99.90;;;;;;6178136;23;20180;-73
2024/01/26 02:46:17;;;;;;;36.47;20.02;;;8.60;99.90;;;;;;6177074;23;20013;-73
2024/01/26 02:48:43;;;;;;;43.25;22.40;;;8.70;99.90;;;;;;6175275;23;20151;-73
2024/01/26 02:51:09;;;;;;;45.03;22.73;;;8.60;99.90;;;;;;6177586;23;20052;-73
2024/01/26 02:53:39;;;;;;;44.30;21.98;;;8.70;99.90;;;;;;6176015;23;20789;-73
2024/01/26 02:56:06;;;;;;;47.70;22.55;;;8.70;99.90;;;;;;6176175;23;20690;-73
2024/01/26 02:58:31;;;;;;;43.10;20.92;;;8.70;99.90;;;;;;6142884;23;20066;-72
2024/01/26 03:00:57;;;;;;;54.15;23.88;;;8.70;99.90;;;;;;6175247;23;20021;-73
2024/01/26 03:03:23;;;;;;;50.92;22.85;;;8.70;99.90;;;;;;6176025;23;20115;-73
2024/01/26 03:05:49;;;;;;;57.00;25.20;;;8.80;99.90;;;;;;6150542;23;20063;-73
2024/01/26 03:08:15;;;;;;;53.90;22.65;;;8.80;99.90;;;;;;6174500;23;20021;-72
2024/01/26 03:10:41;;;;;;;72.15;26.65;;;8.80;99.90;;;;;;6176050;23;20028;-72
2024/01/26 03:13:06;;;;;;;66.28;26.10;;;8.80;99.90;;;;;;6149601;23;20500;-72
2024/01/26 03:15:32;;;;;;;66.90;26.83;;;8.80;99.90;;;;;;6177906;23;20315;-73
2024/01/26 03:17:57;;;;;;;75.43;28.33;;;8.90;99.90;;;;;;6175848;23;20048;-73
2024/01/26 03:20:23;;;;;;;80.03;27.05;;;8.90;99.90;;;;;;6178094;23;20017;-73
2024/01/26 03:22:49;;;;;;;85.80;28.17;;;8.90;99.90;;;;;;6175477;23;20017;-73
2024/01/26 03:25:14;;;;;;;85.82;28.48;;;8.90;99.90;;;;;;6150039;23;20029;-73
2024/01/26 03:27:40;;;;;;;93.07;30.38;;;8.90;99.90;;;;;;6148142;23;20067;-72
2024/01/26 03:30:06;;;;;;;87.82;28.02;;;9.00;99.90;;;;;;6151209;23;20021;-73
2024/01/26 03:32:32;;;;;;;76.70;26.60;;;9.00;99.90;;;;;;6175858;23;20021;-72
2024/01/26 03:34:58;;;;;;;76.55;27.65;;;9.00;99.90;;;;;;6149849;23;20104;-73
2024/01/26 03:37:24;;;;;;;90.47;29.02;;;9.00;99.90;;;;;;6148609;23;20021;-73
2024/01/26 03:39:49;;;;;;;94.93;29.25;;;9.00;99.90;;;;;;6176875;23;20017;-73
2024/01/26 03:42:15;;;;;;;86.47;28.80;;;9.00;99.90;;;;;;6151283;23;20059;-73
2024/01/26 03:44:42;;;;;;;83.95;28.25;;;9.10;99.90;;;;;;6149748;23;20315;-73
2024/01/26 03:47:09;;;;;;;78.68;28.50;;;9.10;99.90;;;;;;6174079;23;20021;-74
2024/01/26 03:49:34;;;;;;;88.10;28.65;;;9.10;99.90;;;;;;6152044;23;20017;-74
2024/01/26 03:52:00;;;;;;;76.22;27.55;;;9.10;99.90;;;;;;6173952;23;20043;-72
2024/01/26 03:54:25;;;;;;;79.20;26.15;;;9.10;99.90;;;;;;6175600;23;20083;-72
2024/01/26 03:56:51;;;;;;;64.55;26.98;;;9.10;99.90;;;;;;6149340;23;20027;-72
2024/01/26 03:59:18;;;;;;;65.43;24.95;;;9.20;99.90;;;;;;6171455;23;20021;-72
2024/01/26 04:01:44;;;;;;;70.88;27.80;;;9.20;99.90;;;;;;6150531;23;20137;-72
2024/01/26 04:04:10;;;;;;;61.97;25.63;;;9.20;99.90;;;;;;6175176;23;20052;-73
2024/01/26 04:06:41;;;;;;;68.88;26.35;;;9.20;99.90;;;;;;6173856;23;20036;-72
2024/01/26 04:09:08;;;;;;;67.70;25.90;;;9.20;99.90;;;;;;6175679;23;20021;-72
2024/01/26 04:11:34;;;;;;;56.22;24.70;;;9.30;99.90;;;;;;6175995;23;20036;-74
2024/01/26 04:14:00;;;;;;;57.17;25.35;;;9.30;99.90;;;;;;6149761;23;20021;-74
2024/01/26 04:16:25;;;;;;;59.30;24.23;;;9.30;99.90;;;;;;6176665;23;20028;-74
2024/01/26 04:18:51;;;;;;;54.25;25.38;;;9.40;99.90;;;;;;6175699;23;20017;-74
2024/01/26 04:21:16;;;;;;;48.67;23.65;;;9.40;99.90;;;;;;6149753;23;20450;-74
2024/01/26 04:23:42;;;;;;;53.63;22.83;;;9.30;99.90;;;;;;6175623;23;20025;-74
2024/01/26 04:26:08;;;;;;;48.85;22.77;;;9.40;99.90;;;;;;6175456;23;20021;-74
2024/01/26 04:28:33;;;;;;;37.13;18.80;;;9.40;99.90;;;;;;6149872;23;20104;-74
2024/01/26 04:31:00;;;;;;;46.80;21.40;;;9.40;99.90;;;;;;6176998;23;20017;-74
2024/01/26 04:33:25;;;;;;;43.38;22.48;;;9.40;99.90;;;;;;6176148;23;20017;-74
2024/01/26 04:35:51;;;;;;;45.45;22.10;;;9.40;99.90;;;;;;6177846;23;20032;-74
2024/01/26 04:38:17;;;;;;;43.00;20.40;;;9.50;99.90;;;;;;6175537;23;20044;-72
2024/01/26 04:40:42;;;;;;;43.90;21.20;;;9.50;99.90;;;;;;6174094;23;20028;-72
2024/01/26 04:43:08;;;;;;;46.05;22.35;;;9.50;99.90;;;;;;6175413;23;20069;-72
2024/01/26 04:45:34;;;;;;;48.70;20.67;;;9.40;99.90;;;;;;6175431;23;20052;-73
2024/01/26 04:47:59;;;;;;;35.45;17.80;;;9.50;99.90;;;;;;6149505;23;20429;-72
2024/01/26 04:50:25;;;;;;;47.50;22.33;;;9.50;99.90;;;;;;6176051;23;20024;-73
2024/01/26 04:52:52;;;;;;;45.00;20.25;;;9.50;99.90;;;;;;6175602;23;20051;-72
2024/01/26 04:55:20;;;;;;;38.55;20.20;;;9.50;99.90;;;;;;6149509;23;20025;-72
2024/01/26 04:57:46;;;;;;;46.42;20.48;;;9.40;99.90;;;;;;6176331;23;20070;-72
2024/01/26 05:00:12;;;;;;;40.55;21.40;;;9.50;99.90;;;;;;6170514;23;20111;-72
2024/01/26 05:02:38;;;;;;;39.33;19.75;;;9.40;99.90;;;;;;6173626;23;20101;-74
2024/01/26 05:05:04;;;;;;;42.65;21.33;;;9.40;99.90;;;;;;6149839;23;20661;-75
2024/01/26 05:07:30;;;;;;;47.72;23.42;;;9.50;99.90;;;;;;6173009;23;20388;-74
2024/01/26 05:09:55;;;;;;;50.65;23.67;;;9.50;99.90;;;;;;6174725;23;20454;-74
2024/01/26 05:12:21;;;;;;;46.70;24.27;;;9.50;99.90;;;;;;6150766;23;20349;-74
2024/01/26 05:14:47;;;;;;;53.65;24.50;;;9.50;99.90;;;;;;6150544;23;20071;-74
2024/01/26 05:17:12;;;;;;;54.08;24.10;;;9.50;99.90;;;;;;6175201;23;20024;-74
2024/01/26 05:19:38;;;;;;;50.17;24.65;;;9.60;99.90;;;;;;6174354;23;20049;-74
2024/01/26 05:22:04;;;;;;;45.45;22.70;;;9.50;99.90;;;;;;6174577;23;20450;-74
2024/01/26 05:24:29;;;;;;;47.38;23.02;;;9.50;99.90;;;;;;6149458;23;20017;-72
2024/01/26 05:26:55;;;;;;;41.65;21.70;;;9.60;99.90;;;;;;6175531;23;20017;-72
2024/01/26 05:29:21;;;;;;;36.92;20.10;;;9.60;99.90;;;;;;6176984;23;20354;-72
2024/01/26 05:31:47;;;;;;;44.03;21.90;;;9.60;99.90;;;;;;6176322;23;20017;-71
2024/01/26 05:34:12;;;;;;;39.53;21.25;;;9.70;99.90;;;;;;6177236;23;20017;-70
2024/01/26 05:36:42;;;;;;;37.17;20.50;;;9.70;99.90;;;;;;6175089;23;20319;-70
2024/01/26 05:39:09;;;;;;;41.38;21.65;;;9.70;99.90;;;;;;6176016;23;20013;-71
2024/01/26 05:41:35;;;;;;;36.65;19.83;;;9.70;99.90;;;;;;6176176;23;20016;-73
2024/01/26 05:44:00;;;;;;;41.90;20.73;;;9.70;99.90;;;;;;6148453;23;20355;-73
2024/01/26 05:46:26;;;;;;;39.13;21.67;;;9.70;99.90;;;;;;6148954;23;20021;-73
2024/01/26 05:48:52;;;;;;;31.85;19.50;;;9.70;99.90;;;;;;6176023;23;20017;-73
2024/01/26 05:51:17;;;;;;;37.42;20.50;;;9.70;99.90;;;;;;6149444;23;20032;-73
2024/01/26 05:53:43;;;;;;;38.38;21.40;;;9.70;99.90;;;;;;6148978;23;20315;-73
2024/01/26 05:56:09;;;;;;;36.88;21.08;;;9.70;99.90;;;;;;6172981;23;20092;-73
2024/01/26 05:58:35;;;;;;;40.47;20.75;;;9.70;99.90;;;;;;6143397;23;20619;-72
2024/01/26 06:01:00;;;;;;;38.95;21.63;;;9.70;99.90;;;;;;6176034;23;20029;-72
2024/01/26 06:03:26;;;;;;;41.92;21.83;;;9.70;99.90;;;;;;6175392;23;20410;-72
2024/01/26 06:05:52;;;;;;;43.10;24.25;;;9.80;99.90;;;;;;6148244;23;20096;-72
2024/01/26 06:08:18;;;;;;;41.17;21.27;;;9.80;99.90;;;;;;6174246;23;20017;-72
2024/01/26 06:10:43;;;;;;;35.60;20.83;;;9.80;99.90;;;;;;6153069;23;20033;-71
2024/01/26 06:13:09;;;;;;;37.22;20.85;;;9.90;99.90;;;;;;6151416;23;20401;-71
2024/01/26 06:15:35;;;;;;;40.33;21.38;;;9.90;99.90;;;;;;6178664;23;20017;-71
2024/01/26 06:18:01;;;;;;;31.20;19.33;;;9.90;99.90;;;;;;6151034;23;20017;-70
2024/01/26 06:20:31;;;;;;;34.78;20.30;;;10.00;99.90;;;;;;6177046;23;20060;-71
2024/01/26 06:22:59;;;;;;;34.38;20.05;;;10.00;99.90;;;;;;6177325;23;20020;-72
2024/01/26 06:25:25;;;;;;;36.78;19.33;;;10.00;99.90;;;;;;6178089;23;20059;-70
2024/01/26 06:27:51;;;;;;;35.35;18.83;;;10.00;99.90;;;;;;6175519;23;20100;-69
2024/01/26 06:30:17;;;;;;;34.60;18.73;;;10.00;99.90;;;;;;6176211;23;20576;-69
2024/01/26 06:32:43;;;;;;;34.78;19.30;;;10.00;99.90;;;;;;6175455;23;20020;-70
2024/01/26 06:35:10;;;;;;;31.17;18.02;;;10.00;99.90;;;;;;6149982;23;20540;-71
2024/01/26 06:37:35;;;;;;;27.17;17.38;;;10.10;99.90;;;;;;6149070;23;20438;-72
2024/01/26 06:40:01;;;;;;;28.65;18.58;;;10.10;99.90;;;;;;6150241;23;20096;-72
2024/01/26 06:42:27;;;;;;;27.25;16.83;;;10.10;99.90;;;;;;6149889;23;20021;-72
2024/01/26 06:44:53;;;;;;;24.85;15.48;;;10.10;99.90;;;;;;6175419;23;20131;-72
2024/01/26 06:47:20;;;;;;;27.30;16.95;;;10.10;99.90;;;;;;6173193;23;20084;-70
2024/01/26 06:49:46;;;;;;;27.35;16.33;;;10.20;99.90;;;;;;6147944;23;20346;-71
2024/01/26 06:52:12;;;;;;;27.00;15.50;;;10.20;99.90;;;;;;6174283;23;20071;-72
2024/01/26 06:54:40;;;;;;;27.48;16.60;;;10.20;99.90;;;;;;6174527;23;20475;-70
2024/01/26 06:57:06;;;;;;;22.63;15.45;;;10.20;99.90;;;;;;6174437;23;20017;-72
2024/01/26 06:59:32;;;;;;;26.90;14.50;;;10.20;99.90;;;;;;6145048;23;20031;-72
2024/01/26 07:01:58;;;;;;;21.35;14.20;;;10.20;99.90;;;;;;6172699;23;20021;-72
2024/01/26 07:04:24;;;;;;;25.20;15.05;;;10.20;99.90;;;;;;6147519;23;20021;-71
2024/01/26 07:06:50;;;;;;;22.30;14.18;;;10.20;99.90;;;;;;6175775;23;20466;-71
2024/01/26 07:09:16;;;;;;;28.25;15.75;;;10.20;99.90;;;;;;6148863;23;20029;-70
2024/01/26 07:11:42;;;;;;;25.92;14.52;;;10.20;99.90;;;;;;6151457;23;20028;-70
2024/01/26 07:14:09;;;;;;;26.83;16.17;;;10.20;99.90;;;;;;6176961;23;20013;-73
2024/01/26 07:16:34;;;;;;;21.67;13.40;;;10.10;99.90;;;;;;6151250;23;20075;-71
2024/01/26 07:19:00;;;;;;;23.50;13.60;;;10.10;99.90;;;;;;6177525;23;20021;-71
2024/01/26 07:21:26;;;;;;;22.85;13.10;;;10.10;99.90;;;;;;6176853;23;20021;-71
2024/01/26 07:23:51;;;;;;;20.45;13.57;;;10.10;99.90;;;;;;6173634;23;20731;-71
2024/01/26 07:26:21;;;;;;;22.23;14.68;;;10.10;99.90;;;;;;6176533;23;20591;-71
2024/01/26 07:28:47;;;;;;;23.35;14.05;;;10.00;99.90;;;;;;6175498;23;20022;-70
2024/01/26 07:31:13;;;;;;;24.30;14.75;;;10.00;99.90;;;;;;6175626;23;20012;-71
2024/01/26 07:33:39;;;;;;;20.63;13.10;;;10.00;99.90;;;;;;6174429;23;20079;-71
2024/01/26 07:36:05;;;;;;;25.55;11.75;;;10.00;99.90;;;;;;6176562;23;20462;-72
2024/01/26 07:38:30;;;;;;;25.48;13.30;;;10.10;99.90;;;;;;6174920;23;20012;-72
2024/01/26 07:40:57;;;;;;;17.15;12.48;;;10.10;99.90;;;;;;6152688;23;20510;-71
2024/01/26 07:43:23;;;;;;;20.95;11.00;;;10.20;99.90;;;;;;6177522;23;20017;-72
2024/01/26 07:45:49;;;;;;;20.63;10.27;;;10.20;99.90;;;;;;6150287;23;20402;-71
2024/01/26 07:48:15;;;;;;;19.67;9.90;;;10.30;99.90;;;;;;6175079;23;20032;-70
2024/01/26 07:50:42;;;;;;;14.93;7.90;;;10.30;99.90;;;;;;6150120;23;20017;-73
2024/01/26 07:53:11;;;;;;;20.92;9.30;;;10.30;99.90;;;;;;6150295;23;20054;-68
2024/01/26 07:55:37;;;;;;;18.95;8.48;;;10.30;99.90;;;;;;6177176;23;20052;-70
2024/01/26 07:58:03;;;;;;;21.25;9.52;;;10.30;99.90;;;;;;6173583;23;20017;-70
2024/01/26 08:00:29;;;;;;;15.48;8.90;;;10.30;99.90;;;;;;6144945;23;20029;-73
2024/01/26 08:02:54;;;;;;;15.65;7.72;;;10.30;99.90;;;;;;6173405;23;20017;-72
2024/01/26 08:05:20;;;;;;;16.75;7.30;;;10.30;99.90;;;;;;6145329;23;20051;-72
2024/01/26 08:07:47;;;;;;;13.40;6.95;;;10.30;99.90;;;;;;6146035;23;20017;-73
2024/01/26 08:10:12;;;;;;;20.20;7.75;;;10.30;99.90;;;;;;6174847;23;20020;-72
2024/01/26 08:12:40;;;;;;;18.77;7.45;;;10.30;99.90;;;;;;6147471;23;20370;-73
2024/01/26 08:15:07;;;;;;;20.73;6.43;;;10.30;99.90;;;;;;6175677;23;20024;-73
2024/01/26 08:17:33;;;;;;;20.88;6.30;;;10.30;99.90;;;;;;6147803;23;20049;-74
2024/01/26 08:19:58;;;;;;;24.83;6.68;;;10.30;99.90;;;;;;6147308;23;20025;-68
2024/01/26 08:22:25;;;;;;;19.05;4.90;;;10.30;99.90;;;;;;6174186;23;20021;-69
2024/01/26 08:24:51;;;;;;;16.27;4.95;;;10.30;99.90;;;;;;6148956;23;20094;-69
2024/01/26 08:27:17;;;;;;;21.65;5.82;;;10.30;99.90;;;;;;6174398;23;20021;-69
2024/01/26 08:29:43;;;;;;;24.40;4.82;;;10.30;99.90;;;;;;6174442;23;20020;-69
2024/01/26 08:32:09;;;;;;;19.73;5.15;;;10.30;99.90;;;;;;6148287;23;20021;-69
2024/01/26 08:34:36;;;;;;;18.33;4.78;;;10.30;99.90;;;;;;6174394;23;20017;-69
2024/01/26 08:37:03;;;;;;;16.80;5.40;;;10.30;99.90;;;;;;6175130;23;20017;-69
2024/01/26 08:39:29;;;;;;;17.15;4.90;;;10.20;99.90;;;;;;6147134;23;20523;-69
2024/01/26 08:41:55;;;;;;;21.23;4.13;;;10.30;99.90;;;;;;6145998;23;20021;-71
2024/01/26 08:44:22;;;;;;;24.60;4.05;;;10.30;99.90;;;;;;6146731;23;20025;-70
2024/01/26 08:46:48;;;;;;;8.32;2.90;;;10.30;99.90;;;;;;6146753;23;20467;-70
2024/01/26 08:49:14;;;;;;;8.55;2.92;;;10.10;99.90;;;;;;6172895;23;20059;-68
2024/01/26 08:51:40;;;;;;;15.38;2.50;;;9.70;99.90;;;;;;6174095;23;20021;-70
2024/01/26 08:54:07;;;;;;;10.90;2.90;;;9.50;99.90;;;;;;6147372;23;20016;-70
2024/01/26 08:56:33;;;;;;;9.90;2.03;;;9.30;99.90;;;;;;6149281;23;20017;-70
2024/01/26 08:58:59;;;;;;;12.05;2.38;;;9.20;99.90;;;;;;6171658;23;20020;-70
2024/01/26 09:01:25;;;;;;;11.07;2.40;;;9.10;99.90;;;;;;6176748;23;20013;-70
2024/01/26 09:03:51;;;;;;;8.90;2.15;;;9.10;99.90;;;;;;6174671;23;20064;-70
2024/01/26 09:06:17;;;;;;;11.18;2.00;;;9.10;99.90;;;;;;6175308;23;20514;-70
2024/01/26 09:08:42;;;;;;;14.27;2.30;;;9.00;99.90;;;;;;6171125;23;20084;-70
2024/01/26 09:11:09;;;;;;;12.48;2.70;;;9.00;99.90;;;;;;6174165;23;20055;-70
2024/01/26 09:13:34;;;;;;;14.98;2.53;;;9.00;99.90;;;;;;6175067;23;20036;-70
2024/01/26 09:16:00;;;;;;;14.32;2.67;;;9.00;99.90;;;;;;6175414;23;20013;-70
2024/01/26 09:18:26;;;;;;;13.60;2.45;;;9.00;99.90;;;;;;6150750;23;20079;-70
2024/01/26 09:20:51;;;;;;;16.13;2.58;;;9.00;99.90;;;;;;6145784;23;20017;-70
2024/01/26 09:23:18;;;;;;;18.20;2.67;;;8.90;99.90;;;;;;6145573;23;20079;-68
2024/01/26 09:25:45;;;;;;;19.77;3.60;;;8.90;99.90;;;;;;6146500;23;20029;-68
2024/01/26 09:28:11;;;;;;;17.25;2.47;;;8.90;99.90;;;;;;6172886;23;20328;-68
2024/01/26 09:30:37;;;;;;;13.82;2.42;;;8.90;99.90;;;;;;6146754;23;20445;-68
2024/01/26 09:33:03;;;;;;;18.30;2.70;;;8.80;99.90;;;;;;6173550;23;20087;-68
2024/01/26 09:35:29;;;;;;;15.68;2.67;;;8.80;99.90;;;;;;6172821;23;20366;-68
2024/01/26 09:37:55;;;;;;;18.35;2.60;;;8.80;99.90;;;;;;6142941;23;20017;-69
2024/01/26 09:40:23;;;;;;;19.85;3.70;;;8.80;99.90;;;;;;6148198;23;20027;-69
2024/01/26 09:42:49;;;;;;;20.50;3.08;;;8.80;99.90;;;;;;6174782;23;20025;-69
2024/01/26 09:45:15;;;;;;;18.05;4.30;;;8.80;99.90;;;;;;6174066;23;20461;-68
2024/01/26 09:47:41;;;;;;;17.40;4.30;;;8.80;99.90;;;;;;6175929;23;20047;-69
2024/01/26 09:50:10;;;;;;;22.58;3.70;;;8.80;99.90;;;;;;6148247;23;20021;-69
2024/01/26 09:52:37;;;;;;;27.60;4.10;;;8.80;99.90;;;;;;6148449;23;20088;-69
2024/01/26 09:55:05;;;;;;;24.25;4.50;;;8.80;99.90;;;;;;6147731;23;20157;-69
2024/01/26 09:57:31;;;;;;;19.10;3.38;;;8.80;99.90;;;;;;6146313;23;20087;-69
2024/01/26 09:59:57;;;;;;;19.10;3.95;;;8.80;99.90;;;;;;6169520;23;20025;-69
2024/01/26 10:02:23;;;;;;;25.27;4.75;;;8.80;99.90;;;;;;6147511;23;20020;-69
2024/01/26 10:04:49;;;;;;;20.30;3.25;;;8.90;99.90;;;;;;6147074;23;20032;-69
2024/01/26 10:07:15;;;;;;;18.85;4.07;;;9.00;99.90;;;;;;6145707;23;20025;-69
2024/01/26 10:09:42;;;;;;;18.33;4.00;;;9.00;99.90;;;;;;6148183;23;20025;-69
2024/01/26 10:12:09;;;;;;;19.58;3.13;;;8.90;99.90;;;;;;6146649;23;20021;-68
2024/01/26 10:14:36;;;;;;;19.70;3.80;;;8.90;99.90;;;;;;6174073;23;20021;-69
2024/01/26 10:17:02;;;;;;;15.65;3.17;;;8.90;99.90;;;;;;6175260;23;20047;-69
2024/01/26 10:19:28;;;;;;;13.85;3.08;;;8.80;99.90;;;;;;6172917;23;20017;-69
2024/01/26 10:21:55;;;;;;;17.77;3.83;;;8.80;99.90;;;;;;6173398;23;20075;-69
2024/01/26 10:24:24;;;;;;;23.55;3.97;;;8.70;99.90;;;;;;6147097;23;20017;-69
2024/01/26 10:26:51;;;;;;;22.85;4.00;;;8.70;99.90;;;;;;6173486;23;20112;-70
2024/01/26 10:29:16;;;;;;;17.58;3.90;;;8.70;99.90;;;;;;6147396;23;20561;-69
2024/01/26 10:31:44;;;;;;;12.93;3.10;;;8.60;99.90;;;;;;6174742;23;20021;-69
2024/01/26 10:34:14;;;;;;;20.38;3.78;;;8.60;99.90;;;;;;6149153;23;20017;-69
2024/01/26 10:36:44;;;;;;;22.23;3.85;;;8.60;99.90;;;;;;6175893;23;20072;-69
2024/01/26 10:39:33;;;;;;;26.98;3.97;;;8.70;99.90;;;;;;6175868;23;20024;-69
2024/01/26 10:42:03;;;;;;;19.80;3.90;;;8.70;99.90;;;;;;6151107;23;20573;-69
2024/01/26 10:44:31;;;;;;;29.20;5.80;;;8.70;99.90;;;;;;6176843;23;20446;-69
2024/01/26 10:46:59;;;;;;;31.15;5.90;;;8.60;99.90;;;;;;6150489;23;20024;-69
2024/01/26 10:49:26;;;;;;;20.00;4.40;;;8.60;99.90;;;;;;6176055;23;20063;-69
2024/01/26 10:51:54;;;;;;;15.73;3.28;;;8.60;99.90;;;;;;6148728;23;20052;-69
2024/01/26 10:54:24;;;;;;;25.55;4.05;;;8.60;99.90;;;;;;6150510;23;20024;-69
2024/01/26 10:56:49;;;;;;;14.15;3.17;;;8.50;99.90;;;;;;6152040;23;20024;-69
2024/01/26 10:59:17;;;;;;;30.70;4.70;;;8.60;99.90;;;;;;6146314;23;20056;-69
2024/01/26 11:01:44;;;;;;;17.98;3.83;;;8.50;99.90;;;;;;6150538;23;20124;-70
2024/01/26 11:04:12;;;;;;;18.38;3.50;;;8.50;99.90;;;;;;6176951;23;20725;-69
2024/01/26 11:06:39;;;;;;;18.70;3.80;;;8.50;99.90;;;;;;6178056;23;20501;-69
2024/01/26 11:09:08;;;;;;;18.30;3.00;;;8.50;99.90;;;;;;6177207;23;20016;-69
2024/01/26 11:11:35;;;;;;;21.73;3.47;;;8.50;99.90;;;;;;6177197;23;20065;-69
2024/01/26 11:14:02;;;;;;;26.48;4.10;;;8.60;99.90;;;;;;6151433;23;20025;-70
2024/01/26 11:16:42;;;;;;;23.25;3.33;;;8.60;99.90;;;;;;6151020;23;20331;-71
2024/01/26 11:19:07;;;;;;;23.33;3.25;;;8.60;99.90;;;;;;6149975;23;20021;-76
2024/01/26 11:21:38;;;;;;;21.98;3.42;;;8.60;99.90;;;;;;6151399;23;20035;-71
2024/01/26 11:24:18;;;;;;;21.13;3.33;;;8.60;99.90;;;;;;6149922;23;20028;-68
2024/01/26 11:26:59;;;;;;;24.33;3.72;;;8.60;99.90;;;;;;6148512;23;20788;-69
2024/01/26 11:29:32;;;;;;;20.25;3.85;;;8.70;99.90;;;;;;6150172;23;20500;-68
2024/01/26 11:31:57;;;;;;;;;;;8.60;99.90;;;;;;6177984;23;20299;-68
2024/01/26 11:34:23;;;;;;;18.55;3.28;;;8.60;99.90;;;;;;6151702;23;20035;-66
2024/01/26 11:37:11;;;;;;;18.80;3.85;;;8.50;99.90;;;;;;6177560;23;20067;-66
2024/01/26 11:39:38;;;;;;;25.65;4.18;;;8.50;99.90;;;;;;6150558;23;20159;-66
2024/01/26 11:42:14;;;;;;;26.73;5.32;;;8.50;99.90;;;;;;6179515;23;20013;-66
2024/01/26 11:44:41;;;;;;;30.10;4.90;;;8.50;99.90;;;;;;6151540;23;20096;-66
2024/01/26 11:47:10;;;;;;;21.55;3.97;;;8.50;99.90;;;;;;6178819;23;20016;-66
2024/01/26 11:49:37;;;;;;;26.25;4.63;;;8.40;99.90;;;;;;6179068;23;20330;-66
2024/01/26 11:52:04;;;;;;;16.08;3.10;;;8.40;99.90;;;;;;6151881;23;20020;-66
2024/01/26 11:54:31;;;;;;;20.55;4.72;;;8.40;99.90;;;;;;6178160;23;20024;-66
2024/01/26 11:56:58;;;;;;;18.90;2.95;;;8.40;99.90;;;;;;6178665;23;20350;-66
2024/01/26 11:59:23;;;;;;;17.83;3.80;;;8.30;99.90;;;;;;6147095;23;20454;-65
2024/01/26 12:01:49;;;;;;;31.90;6.00;;;8.30;99.90;;;;;;6152775;23;20017;-65
2024/01/26 12:04:16;;;;;;;23.92;3.72;;;8.30;99.90;;;;;;6151111;23;20017;-66
2024/01/26 12:06:42;;;;;;;21.48;4.65;;;8.40;99.90;;;;;;6178835;23;20092;-66
2024/01/26 12:09:09;;;;;;;16.27;3.35;;;8.30;99.90;;;;;;6177584;23;20454;-68
2024/01/26 12:11:35;;;;;;;30.25;5.85;;;8.30;99.90;;;;;;6152103;23;20060;-66
2024/01/26 12:14:01;;;;;;;22.33;5.05;;;8.30;99.90;;;;;;6177865;23;20786;-66
2024/01/26 12:16:30;;;;;;;32.63;5.35;;;8.30;99.90;;;;;;6152424;23;20057;-66
2024/01/26 12:18:56;;;;;;;21.40;4.45;;;8.20;99.90;;;;;;6152045;23;20021;-66
2024/01/26 12:21:21;;;;;;;32.92;4.57;;;8.10;99.90;;;;;;6178610;23;20021;-66
2024/01/26 12:23:50;;;;;;;15.75;3.63;;;7.90;99.90;;;;;;6177857;23;20017;-65
2024/01/26 12:26:16;;;;;;;14.27;3.10;;;7.80;99.90;;;;;;6177447;23;20110;-66
2024/01/26 12:28:42;;;;;;;15.45;2.47;;;7.50;99.90;;;;;;6177405;23;20370;-65
2024/01/26 12:31:08;;;;;;;14.90;2.90;;;7.40;99.90;;;;;;6179119;23;20021;-66
2024/01/26 12:33:37;;;;;;;12.10;2.47;;;7.30;99.90;;;;;;6178250;23;20047;-65